IWY711 TFFF-TNCM
Flight info
| Callsign | IWY711 |
|---|---|
| Flight time | 1h 12m |
| Altitude | 14000 |
| Route | FOF A312 ANU ELOPO ONBED UMANA AVAKI |
| Aircraft | AT76/M-SDFGHIRWY/LB1 |
Departure
| Time | 2026-05-08 21:33 |
|---|---|
| Airport | Martinique Aimé Césaire International Airport (TFFF) |
Arrival
| Time | 2026-05-08 22:45 |
|---|---|
| Airport | Princess Juliana International Airport (TNCM) |
| Time | Latitude | Longitude | Altitude | Speed | Heading |
|---|---|---|---|---|---|
| 2026-05-08 21:03 | 14.59491 | -61.00091 | 3 ft | 0 kts | 33° |
| 2026-05-08 21:23 | 14.59480 | -61.00098 | 3 ft | 4 kts | 34° |
| 2026-05-08 21:23 | 14.59466 | -61.00107 | 3 ft | 1 kts | 33° |
| 2026-05-08 21:23 | 14.59453 | -61.00116 | 3 ft | 6 kts | 34° |
| 2026-05-08 21:23 | 14.59417 | -61.00142 | 3 ft | 4 kts | 35° |
| 2026-05-08 21:24 | 14.59409 | -61.00147 | 3 ft | 0 kts | 36° |
| 2026-05-08 21:25 | 14.59411 | -61.00143 | 3 ft | 2 kts | 60° |
| 2026-05-08 21:25 | 14.59393 | -61.00117 | 3 ft | 7 kts | 129° |
| 2026-05-08 21:25 | 14.59376 | -61.00071 | 3 ft | 7 kts | 113° |
| 2026-05-08 21:25 | 14.59341 | -61.00041 | 3 ft | 7 kts | 169° |
| 2026-05-08 21:26 | 14.59312 | -61.00080 | 3 ft | 9 kts | 261° |
| 2026-05-08 21:26 | 14.59301 | -61.00159 | 3 ft | 13 kts | 261° |
| 2026-05-08 21:26 | 14.59284 | -61.00256 | 3 ft | 14 kts | 260° |
| 2026-05-08 21:26 | 14.59266 | -61.00362 | 3 ft | 15 kts | 260° |
| 2026-05-08 21:27 | 14.59248 | -61.00473 | 3 ft | 16 kts | 260° |
| 2026-05-08 21:27 | 14.59232 | -61.00567 | 3 ft | 11 kts | 259° |
| 2026-05-08 21:27 | 14.59216 | -61.00655 | 3 ft | 13 kts | 259° |
| 2026-05-08 21:27 | 14.59200 | -61.00751 | 3 ft | 14 kts | 260° |
| 2026-05-08 21:28 | 14.59183 | -61.00855 | 4 ft | 15 kts | 260° |
| 2026-05-08 21:28 | 14.59165 | -61.00965 | 4 ft | 16 kts | 261° |
| 2026-05-08 21:28 | 14.59147 | -61.01078 | 4 ft | 16 kts | 260° |
| 2026-05-08 21:28 | 14.59126 | -61.01194 | 4 ft | 17 kts | 259° |
| 2026-05-08 21:29 | 14.59108 | -61.01291 | 4 ft | 7 kts | 259° |
| 2026-05-08 21:29 | 14.59093 | -61.01353 | 4 ft | 4 kts | 236° |
| 2026-05-08 21:29 | 14.59066 | -61.01364 | 4 ft | 6 kts | 179° |
| 2026-05-08 21:29 | 14.59041 | -61.01361 | 5 ft | 0 kts | 171° |
| 2026-05-08 21:31 | 14.59028 | -61.01358 | 5 ft | 5 kts | 171° |
| 2026-05-08 21:31 | 14.58988 | -61.01353 | 6 ft | 7 kts | 174° |
| 2026-05-08 21:31 | 14.58939 | -61.01343 | 6 ft | 7 kts | 140° |
| 2026-05-08 21:31 | 14.58934 | -61.01313 | 6 ft | 0 kts | 80° |
| 2026-05-08 21:32 | 14.58965 | -61.01132 | 6 ft | 60 kts | 80° |
| 2026-05-08 21:32 | 14.59075 | -61.00490 | 3 ft | 119 kts | 80° |
| 2026-05-08 21:32 | 14.59226 | -60.99585 | 382 ft | 132 kts | 82° |
| 2026-05-08 21:33 | 14.59337 | -60.98625 | 909 ft | 138 kts | 84° |
| 2026-05-08 21:33 | 14.59476 | -60.97611 | 1386 ft | 147 kts | 80° |
| 2026-05-08 21:33 | 14.59666 | -60.96583 | 1984 ft | 146 kts | 80° |
| 2026-05-08 21:33 | 14.59868 | -60.95542 | 2529 ft | 148 kts | 78° |
| 2026-05-08 21:34 | 14.60048 | -60.94504 | 3128 ft | 147 kts | 80° |
| 2026-05-08 21:34 | 14.60197 | -60.93447 | 3625 ft | 152 kts | 84° |
| 2026-05-08 21:34 | 14.60369 | -60.92357 | 4123 ft | 158 kts | 76° |
| 2026-05-08 21:34 | 14.60655 | -60.91240 | 4614 ft | 163 kts | 75° |
| 2026-05-08 21:35 | 14.60938 | -60.90080 | 5120 ft | 170 kts | 72° |
| 2026-05-08 21:35 | 14.61715 | -60.89179 | 5582 ft | 177 kts | 23° |
| 2026-05-08 21:35 | 14.62970 | -60.89228 | 6042 ft | 191 kts | 338° |
| 2026-05-08 21:35 | 14.64135 | -60.89889 | 6443 ft | 193 kts | 333° |
| 2026-05-08 21:36 | 14.65190 | -60.90716 | 6945 ft | 186 kts | 329° |
| 2026-05-08 21:36 | 14.66364 | -60.91272 | 7309 ft | 190 kts | 352° |
| 2026-05-08 21:36 | 14.67711 | -60.91444 | 7646 ft | 194 kts | 357° |
| 2026-05-08 21:36 | 14.69020 | -60.91559 | 8201 ft | 190 kts | 358° |
| 2026-05-08 21:37 | 14.70364 | -60.91642 | 8501 ft | 195 kts | 359° |
| 2026-05-08 21:37 | 14.71724 | -60.91709 | 8883 ft | 196 kts | 359° |
| 2026-05-08 21:37 | 14.73088 | -60.91807 | 9282 ft | 197 kts | 359° |
| 2026-05-08 21:37 | 14.74442 | -60.91873 | 9678 ft | 197 kts | 360° |
| 2026-05-08 21:38 | 14.75812 | -60.91920 | 9946 ft | 198 kts | 360° |
| 2026-05-08 21:38 | 14.77210 | -60.91956 | 10214 ft | 198 kts | 0° |
| 2026-05-08 21:38 | 14.78591 | -60.91983 | 10487 ft | 198 kts | 0° |
| 2026-05-08 21:38 | 14.79974 | -60.92005 | 10753 ft | 199 kts | 0° |
| 2026-05-08 21:39 | 14.81363 | -60.92022 | 11023 ft | 200 kts | 360° |
| 2026-05-08 21:39 | 14.82730 | -60.92153 | 11287 ft | 200 kts | 352° |
| 2026-05-08 21:39 | 14.84129 | -60.92378 | 11555 ft | 201 kts | 351° |
| 2026-05-08 21:39 | 14.85471 | -60.92712 | 11814 ft | 201 kts | 344° |
| 2026-05-08 21:40 | 14.86807 | -60.93136 | 12065 ft | 201 kts | 343° |
| 2026-05-08 21:40 | 14.88145 | -60.93565 | 12297 ft | 202 kts | 343° |
| 2026-05-08 21:40 | 14.89494 | -60.93977 | 12541 ft | 202 kts | 344° |
| 2026-05-08 21:41 | 14.92202 | -60.94772 | 13030 ft | 203 kts | 345° |
| 2026-05-08 21:41 | 14.93563 | -60.95167 | 13264 ft | 203 kts | 345° |
| 2026-05-08 21:41 | 14.94895 | -60.95653 | 13490 ft | 204 kts | 334° |
| 2026-05-08 21:41 | 14.96133 | -60.96377 | 13681 ft | 205 kts | 330° |
| 2026-05-08 21:42 | 14.97352 | -60.97139 | 13865 ft | 207 kts | 330° |
| 2026-05-08 21:42 | 14.98606 | -60.97911 | 13926 ft | 215 kts | 332° |
| 2026-05-08 21:42 | 14.99928 | -60.98680 | 13951 ft | 221 kts | 333° |
| 2026-05-08 21:42 | 15.01301 | -60.99439 | 13960 ft | 227 kts | 334° |
| 2026-05-08 21:43 | 15.02709 | -61.00198 | 13965 ft | 230 kts | 334° |
| 2026-05-08 21:43 | 15.04143 | -61.00985 | 13969 ft | 235 kts | 333° |
| 2026-05-08 21:43 | 15.05582 | -61.01785 | 13968 ft | 235 kts | 333° |
| 2026-05-08 21:43 | 15.07028 | -61.02590 | 13969 ft | 237 kts | 333° |
| 2026-05-08 21:44 | 15.08484 | -61.03403 | 13968 ft | 239 kts | 333° |
| 2026-05-08 21:44 | 15.09948 | -61.04221 | 13970 ft | 240 kts | 333° |
| 2026-05-08 21:44 | 15.11421 | -61.05045 | 13969 ft | 242 kts | 333° |
| 2026-05-08 21:44 | 15.12899 | -61.05874 | 13969 ft | 242 kts | 333° |
| 2026-05-08 21:45 | 15.14385 | -61.06702 | 13962 ft | 244 kts | 334° |
| 2026-05-08 21:45 | 15.15881 | -61.07536 | 13961 ft | 244 kts | 333° |
| 2026-05-08 21:45 | 15.17366 | -61.08379 | 13960 ft | 244 kts | 333° |
| 2026-05-08 21:45 | 15.18860 | -61.09224 | 13961 ft | 244 kts | 333° |
| 2026-05-08 21:46 | 15.20356 | -61.10064 | 13960 ft | 244 kts | 333° |
| 2026-05-08 21:46 | 15.21848 | -61.10902 | 13960 ft | 245 kts | 333° |
| 2026-05-08 21:46 | 15.23345 | -61.11749 | 13961 ft | 244 kts | 333° |
| 2026-05-08 21:46 | 15.24832 | -61.12586 | 13960 ft | 242 kts | 333° |
| 2026-05-08 21:47 | 15.26311 | -61.13417 | 13959 ft | 243 kts | 333° |
| 2026-05-08 21:47 | 15.27802 | -61.14240 | 13960 ft | 242 kts | 334° |
| 2026-05-08 21:47 | 15.29274 | -61.15060 | 13961 ft | 243 kts | 333° |
| 2026-05-08 21:47 | 15.30765 | -61.15883 | 13961 ft | 243 kts | 334° |
| 2026-05-08 21:48 | 15.32257 | -61.16714 | 13959 ft | 244 kts | 333° |
| 2026-05-08 21:48 | 15.33754 | -61.17550 | 13960 ft | 246 kts | 333° |
| 2026-05-08 21:48 | 15.35250 | -61.18397 | 13969 ft | 245 kts | 333° |
| 2026-05-08 21:48 | 15.36745 | -61.19243 | 13982 ft | 245 kts | 333° |
| 2026-05-08 21:49 | 15.38230 | -61.20095 | 13992 ft | 243 kts | 332° |
| 2026-05-08 21:49 | 15.39700 | -61.20942 | 13997 ft | 242 kts | 333° |
| 2026-05-08 21:49 | 15.41182 | -61.21774 | 13995 ft | 242 kts | 334° |
| 2026-05-08 21:49 | 15.42669 | -61.22604 | 14001 ft | 243 kts | 334° |
| 2026-05-08 21:50 | 15.44157 | -61.23419 | 14003 ft | 242 kts | 334° |
| 2026-05-08 21:50 | 15.45638 | -61.24243 | 14010 ft | 239 kts | 333° |
| 2026-05-08 21:50 | 15.47106 | -61.25068 | 14012 ft | 240 kts | 333° |
| 2026-05-08 21:50 | 15.48582 | -61.25892 | 14018 ft | 241 kts | 333° |
| 2026-05-08 21:51 | 15.50056 | -61.26719 | 14025 ft | 241 kts | 333° |
| 2026-05-08 21:51 | 15.51537 | -61.27555 | 14027 ft | 242 kts | 333° |
| 2026-05-08 21:51 | 15.53018 | -61.28394 | 14029 ft | 242 kts | 333° |
| 2026-05-08 21:51 | 15.54500 | -61.29230 | 14037 ft | 243 kts | 333° |
| 2026-05-08 21:52 | 15.56009 | -61.30000 | 14033 ft | 241 kts | 340° |
| 2026-05-08 21:52 | 15.57608 | -61.30538 | 14034 ft | 242 kts | 345° |
| 2026-05-08 21:52 | 15.59227 | -61.31020 | 14033 ft | 243 kts | 345° |
| 2026-05-08 21:52 | 15.60849 | -61.31513 | 14032 ft | 243 kts | 344° |
| 2026-05-08 21:53 | 15.62460 | -61.32044 | 14033 ft | 243 kts | 343° |
| 2026-05-08 21:53 | 15.64062 | -61.32591 | 14034 ft | 243 kts | 343° |
| 2026-05-08 21:53 | 15.65666 | -61.33140 | 14035 ft | 243 kts | 343° |
| 2026-05-08 21:53 | 15.67271 | -61.33687 | 14029 ft | 243 kts | 343° |
| 2026-05-08 21:54 | 15.68875 | -61.34234 | 14026 ft | 243 kts | 343° |
| 2026-05-08 21:54 | 15.70481 | -61.34784 | 14025 ft | 243 kts | 343° |
| 2026-05-08 21:54 | 15.71544 | -61.35146 | 14025 ft | 243 kts | 343° |
| 2026-05-08 21:54 | 15.73146 | -61.35693 | 14025 ft | 243 kts | 343° |
| 2026-05-08 21:55 | 15.74748 | -61.36242 | 14025 ft | 243 kts | 343° |
| 2026-05-08 21:55 | 15.76875 | -61.36967 | 14019 ft | 243 kts | 343° |
| 2026-05-08 21:55 | 15.78480 | -61.37516 | 14018 ft | 243 kts | 343° |
| 2026-05-08 21:56 | 15.81170 | -61.38439 | 14015 ft | 243 kts | 343° |
| 2026-05-08 21:56 | 15.83291 | -61.39163 | 14015 ft | 243 kts | 343° |
| 2026-05-08 21:56 | 15.84376 | -61.39533 | 14017 ft | 243 kts | 343° |
| 2026-05-08 21:56 | 15.85978 | -61.40080 | 14015 ft | 243 kts | 343° |
| 2026-05-08 21:57 | 15.87582 | -61.40631 | 14019 ft | 242 kts | 343° |
| 2026-05-08 21:57 | 15.89184 | -61.41178 | 14022 ft | 242 kts | 343° |
| 2026-05-08 21:57 | 15.90784 | -61.41727 | 14024 ft | 242 kts | 343° |
| 2026-05-08 21:57 | 15.92364 | -61.42269 | 14024 ft | 242 kts | 343° |
| 2026-05-08 21:58 | 15.93966 | -61.42816 | 14025 ft | 242 kts | 343° |
| 2026-05-08 21:58 | 15.95567 | -61.43365 | 14025 ft | 242 kts | 343° |
| 2026-05-08 21:58 | 15.97167 | -61.43912 | 14020 ft | 242 kts | 343° |
| 2026-05-08 21:58 | 15.98771 | -61.44462 | 14018 ft | 243 kts | 343° |
| 2026-05-08 21:59 | 16.00375 | -61.45011 | 14017 ft | 243 kts | 343° |
| 2026-05-08 21:59 | 16.01975 | -61.45559 | 14018 ft | 243 kts | 343° |
| 2026-05-08 21:59 | 16.03581 | -61.46110 | 14015 ft | 243 kts | 343° |
| 2026-05-08 21:59 | 16.05206 | -61.46668 | 14018 ft | 243 kts | 343° |
| 2026-05-08 22:00 | 16.06788 | -61.47210 | 14015 ft | 243 kts | 343° |
| 2026-05-08 22:00 | 16.08390 | -61.47760 | 14015 ft | 243 kts | 343° |
| 2026-05-08 22:00 | 16.09994 | -61.48309 | 14016 ft | 242 kts | 343° |
| 2026-05-08 22:00 | 16.11594 | -61.48859 | 14015 ft | 242 kts | 343° |
| 2026-05-08 22:01 | 16.13199 | -61.49409 | 14016 ft | 242 kts | 343° |
| 2026-05-08 22:01 | 16.14801 | -61.49958 | 14015 ft | 243 kts | 343° |
| 2026-05-08 22:01 | 16.16405 | -61.50511 | 14012 ft | 243 kts | 343° |
| 2026-05-08 22:01 | 16.18014 | -61.51061 | 14009 ft | 243 kts | 343° |
| 2026-05-08 22:02 | 16.19622 | -61.51612 | 14007 ft | 243 kts | 343° |
| 2026-05-08 22:02 | 16.21226 | -61.52166 | 14006 ft | 243 kts | 343° |
| 2026-05-08 22:02 | 16.22833 | -61.52716 | 14008 ft | 243 kts | 343° |
| 2026-05-08 22:02 | 16.24437 | -61.53267 | 14008 ft | 243 kts | 343° |
| 2026-05-08 22:03 | 16.26047 | -61.53816 | 14004 ft | 243 kts | 343° |
| 2026-05-08 22:03 | 16.27655 | -61.54356 | 14006 ft | 243 kts | 343° |
| 2026-05-08 22:03 | 16.29270 | -61.54868 | 14007 ft | 243 kts | 345° |
| 2026-05-08 22:03 | 16.30892 | -61.55360 | 14004 ft | 243 kts | 345° |
| 2026-05-08 22:04 | 16.32513 | -61.55847 | 14007 ft | 243 kts | 345° |
| 2026-05-08 22:04 | 16.34138 | -61.56337 | 14004 ft | 243 kts | 345° |
| 2026-05-08 22:04 | 16.35759 | -61.56826 | 14006 ft | 243 kts | 345° |
| 2026-05-08 22:04 | 16.37383 | -61.57316 | 14007 ft | 243 kts | 345° |
| 2026-05-08 22:05 | 16.39005 | -61.57802 | 14010 ft | 243 kts | 345° |
| 2026-05-08 22:05 | 16.40626 | -61.58290 | 14004 ft | 243 kts | 345° |
| 2026-05-08 22:05 | 16.42247 | -61.58780 | 14013 ft | 242 kts | 345° |
| 2026-05-08 22:05 | 16.43866 | -61.59266 | 14014 ft | 242 kts | 345° |
| 2026-05-08 22:06 | 16.45486 | -61.59755 | 14013 ft | 242 kts | 345° |
| 2026-05-08 22:06 | 16.47106 | -61.60245 | 14015 ft | 243 kts | 345° |
| 2026-05-08 22:06 | 16.48731 | -61.60734 | 14009 ft | 243 kts | 345° |
| 2026-05-08 22:06 | 16.50357 | -61.61225 | 14007 ft | 243 kts | 345° |
| 2026-05-08 22:07 | 16.51979 | -61.61713 | 14006 ft | 243 kts | 345° |
| 2026-05-08 22:07 | 16.53601 | -61.62202 | 14008 ft | 243 kts | 345° |
| 2026-05-08 22:07 | 16.55226 | -61.62693 | 14006 ft | 243 kts | 345° |
| 2026-05-08 22:07 | 16.56851 | -61.63182 | 14006 ft | 243 kts | 345° |
| 2026-05-08 22:08 | 16.58473 | -61.63672 | 14008 ft | 243 kts | 345° |
| 2026-05-08 22:08 | 16.60074 | -61.64157 | 14004 ft | 243 kts | 345° |
| 2026-05-08 22:08 | 16.61698 | -61.64646 | 14004 ft | 243 kts | 345° |
| 2026-05-08 22:08 | 16.63322 | -61.65136 | 14011 ft | 243 kts | 345° |
| 2026-05-08 22:09 | 16.64965 | -61.65631 | 14004 ft | 243 kts | 345° |
| 2026-05-08 22:09 | 16.66587 | -61.66119 | 14005 ft | 243 kts | 345° |
| 2026-05-08 22:09 | 16.68209 | -61.66611 | 14005 ft | 243 kts | 345° |
| 2026-05-08 22:09 | 16.69828 | -61.67101 | 14006 ft | 242 kts | 345° |
| 2026-05-08 22:10 | 16.71448 | -61.67589 | 14005 ft | 242 kts | 345° |
| 2026-05-08 22:10 | 16.73066 | -61.68078 | 14006 ft | 242 kts | 345° |
| 2026-05-08 22:10 | 16.74686 | -61.68569 | 14013 ft | 242 kts | 345° |
| 2026-05-08 22:10 | 16.76304 | -61.69056 | 14006 ft | 242 kts | 345° |
| 2026-05-08 22:11 | 16.77922 | -61.69546 | 14006 ft | 242 kts | 345° |
| 2026-05-08 22:11 | 16.79517 | -61.70026 | 14005 ft | 242 kts | 345° |
| 2026-05-08 22:11 | 16.81155 | -61.70523 | 14011 ft | 242 kts | 345° |
| 2026-05-08 22:11 | 16.82773 | -61.71013 | 14017 ft | 242 kts | 345° |
| 2026-05-08 22:12 | 16.84392 | -61.71503 | 14014 ft | 242 kts | 345° |
| 2026-05-08 22:12 | 16.85988 | -61.71987 | 14015 ft | 242 kts | 345° |
| 2026-05-08 22:12 | 16.87606 | -61.72477 | 14015 ft | 243 kts | 345° |
| 2026-05-08 22:12 | 16.89227 | -61.72968 | 14015 ft | 243 kts | 345° |
| 2026-05-08 22:13 | 16.90852 | -61.73459 | 14016 ft | 243 kts | 345° |
| 2026-05-08 22:13 | 16.92473 | -61.73951 | 14015 ft | 243 kts | 345° |
| 2026-05-08 22:13 | 16.94095 | -61.74442 | 14018 ft | 243 kts | 345° |
| 2026-05-08 22:13 | 16.95717 | -61.74932 | 14015 ft | 243 kts | 345° |
| 2026-05-08 22:14 | 16.97337 | -61.75425 | 14015 ft | 243 kts | 345° |
| 2026-05-08 22:14 | 16.98962 | -61.75915 | 14015 ft | 243 kts | 345° |
| 2026-05-08 22:14 | 17.00587 | -61.76410 | 14015 ft | 243 kts | 345° |
| 2026-05-08 22:14 | 17.02210 | -61.76901 | 14016 ft | 243 kts | 345° |
| 2026-05-08 22:15 | 17.03838 | -61.77394 | 14016 ft | 244 kts | 345° |
| 2026-05-08 22:15 | 17.05469 | -61.77890 | 14009 ft | 244 kts | 345° |
| 2026-05-08 22:15 | 17.07101 | -61.78385 | 14006 ft | 244 kts | 345° |
| 2026-05-08 22:15 | 17.08735 | -61.78880 | 14007 ft | 244 kts | 345° |
| 2026-05-08 22:16 | 17.10366 | -61.79375 | 14005 ft | 244 kts | 345° |
| 2026-05-08 22:16 | 17.11989 | -61.79885 | 14003 ft | 243 kts | 341° |
| 2026-05-08 22:16 | 17.13350 | -61.80915 | 14006 ft | 245 kts | 314° |
| 2026-05-08 22:16 | 17.14384 | -61.82336 | 14007 ft | 247 kts | 308° |
| 2026-05-08 22:17 | 17.15345 | -61.83826 | 14011 ft | 248 kts | 306° |
| 2026-05-08 22:17 | 17.16295 | -61.85302 | 14006 ft | 248 kts | 307° |
| 2026-05-08 22:17 | 17.17296 | -61.86799 | 14010 ft | 248 kts | 308° |
| 2026-05-08 22:17 | 17.18314 | -61.88262 | 14006 ft | 249 kts | 309° |
| 2026-05-08 22:18 | 17.19319 | -61.89703 | 14012 ft | 249 kts | 309° |
| 2026-05-08 22:18 | 17.20341 | -61.91168 | 14012 ft | 249 kts | 309° |
| 2026-05-08 22:18 | 17.21362 | -61.92633 | 14017 ft | 249 kts | 309° |
| 2026-05-08 22:18 | 17.22385 | -61.94095 | 14016 ft | 249 kts | 309° |
| 2026-05-08 22:19 | 17.23405 | -61.95559 | 14017 ft | 249 kts | 309° |
| 2026-05-08 22:19 | 17.24425 | -61.97021 | 14017 ft | 249 kts | 309° |
| 2026-05-08 22:19 | 17.25444 | -61.98485 | 14021 ft | 249 kts | 309° |
| 2026-05-08 22:19 | 17.26466 | -61.99948 | 14015 ft | 249 kts | 309° |
| 2026-05-08 22:20 | 17.27488 | -62.01416 | 14015 ft | 249 kts | 309° |
| 2026-05-08 22:20 | 17.28508 | -62.02881 | 14017 ft | 249 kts | 309° |
| 2026-05-08 22:20 | 17.29529 | -62.04348 | 14015 ft | 249 kts | 309° |
| 2026-05-08 22:20 | 17.30547 | -62.05812 | 14014 ft | 249 kts | 309° |
| 2026-05-08 22:21 | 17.31567 | -62.07276 | 14015 ft | 249 kts | 309° |
| 2026-05-08 22:21 | 17.32588 | -62.08740 | 14015 ft | 249 kts | 309° |
| 2026-05-08 22:21 | 17.33608 | -62.10208 | 14019 ft | 249 kts | 309° |
| 2026-05-08 22:21 | 17.34628 | -62.11675 | 14016 ft | 249 kts | 309° |
| 2026-05-08 22:22 | 17.35650 | -62.13141 | 14015 ft | 249 kts | 309° |
| 2026-05-08 22:22 | 17.36669 | -62.14610 | 14017 ft | 249 kts | 308° |
| 2026-05-08 22:22 | 17.37689 | -62.16076 | 14017 ft | 249 kts | 309° |
| 2026-05-08 22:22 | 17.38708 | -62.17543 | 14019 ft | 249 kts | 308° |
| 2026-05-08 22:23 | 17.39728 | -62.19008 | 14015 ft | 249 kts | 309° |
| 2026-05-08 22:23 | 17.40763 | -62.20497 | 13811 ft | 257 kts | 308° |
| 2026-05-08 22:23 | 17.41822 | -62.22022 | 13690 ft | 260 kts | 308° |
| 2026-05-08 22:23 | 17.42885 | -62.23555 | 13594 ft | 260 kts | 308° |
| 2026-05-08 22:24 | 17.43953 | -62.25092 | 13495 ft | 262 kts | 308° |
| 2026-05-08 22:24 | 17.45024 | -62.26634 | 13395 ft | 262 kts | 308° |
| 2026-05-08 22:24 | 17.46095 | -62.28180 | 13292 ft | 262 kts | 308° |
| 2026-05-08 22:24 | 17.47169 | -62.29727 | 13195 ft | 263 kts | 309° |
| 2026-05-08 22:25 | 17.48247 | -62.31276 | 13092 ft | 263 kts | 308° |
| 2026-05-08 22:25 | 17.49325 | -62.32833 | 12993 ft | 264 kts | 308° |
| 2026-05-08 22:25 | 17.50402 | -62.34390 | 12917 ft | 263 kts | 308° |
| 2026-05-08 22:25 | 17.51477 | -62.35938 | 12856 ft | 262 kts | 308° |
| 2026-05-08 22:26 | 17.52548 | -62.37487 | 12774 ft | 262 kts | 308° |
| 2026-05-08 22:26 | 17.53620 | -62.39032 | 12705 ft | 262 kts | 308° |
| 2026-05-08 22:26 | 17.54690 | -62.40577 | 12630 ft | 262 kts | 308° |
| 2026-05-08 22:26 | 17.55761 | -62.42124 | 12555 ft | 262 kts | 308° |
| 2026-05-08 22:27 | 17.56834 | -62.43671 | 12479 ft | 262 kts | 308° |
| 2026-05-08 22:27 | 17.57902 | -62.45218 | 12401 ft | 262 kts | 308° |
| 2026-05-08 22:27 | 17.58976 | -62.46766 | 12329 ft | 262 kts | 308° |
| 2026-05-08 22:27 | 17.60043 | -62.48311 | 12254 ft | 262 kts | 308° |
| 2026-05-08 22:28 | 17.61111 | -62.49856 | 12183 ft | 262 kts | 308° |
| 2026-05-08 22:28 | 17.62182 | -62.51401 | 12106 ft | 262 kts | 308° |
| 2026-05-08 22:28 | 17.63249 | -62.52945 | 12068 ft | 261 kts | 308° |
| 2026-05-08 22:28 | 17.64308 | -62.54481 | 12051 ft | 259 kts | 308° |
| 2026-05-08 22:29 | 17.65359 | -62.56013 | 12038 ft | 258 kts | 308° |
| 2026-05-08 22:29 | 17.66414 | -62.57526 | 12037 ft | 256 kts | 308° |
| 2026-05-08 22:29 | 17.67457 | -62.59035 | 12036 ft | 255 kts | 308° |
| 2026-05-08 22:29 | 17.68495 | -62.60538 | 12034 ft | 254 kts | 309° |
| 2026-05-08 22:30 | 17.69533 | -62.62039 | 12033 ft | 254 kts | 308° |
| 2026-05-08 22:30 | 17.70566 | -62.63536 | 12033 ft | 254 kts | 308° |
| 2026-05-08 22:30 | 17.71590 | -62.65015 | 11969 ft | 245 kts | 309° |
| 2026-05-08 22:30 | 17.72583 | -62.66429 | 11644 ft | 241 kts | 309° |
| 2026-05-08 22:31 | 17.73585 | -62.67848 | 11145 ft | 245 kts | 309° |
| 2026-05-08 22:31 | 17.74607 | -62.69301 | 10591 ft | 250 kts | 309° |
| 2026-05-08 22:31 | 17.75626 | -62.70766 | 10048 ft | 253 kts | 308° |
| 2026-05-08 22:31 | 17.76665 | -62.72271 | 9497 ft | 256 kts | 308° |
| 2026-05-08 22:32 | 17.77715 | -62.73791 | 8947 ft | 259 kts | 308° |
| 2026-05-08 22:32 | 17.78773 | -62.75330 | 8395 ft | 260 kts | 308° |
| 2026-05-08 22:32 | 17.79837 | -62.76870 | 7844 ft | 262 kts | 308° |
| 2026-05-08 22:32 | 17.80909 | -62.78427 | 7216 ft | 265 kts | 308° |
| 2026-05-08 22:33 | 17.81991 | -62.79999 | 6591 ft | 267 kts | 308° |
| 2026-05-08 22:33 | 17.83085 | -62.81581 | 5964 ft | 268 kts | 308° |
| 2026-05-08 22:33 | 17.84163 | -62.83172 | 5336 ft | 265 kts | 304° |
| 2026-05-08 22:33 | 17.84757 | -62.84993 | 4711 ft | 266 kts | 281° |
| 2026-05-08 22:34 | 17.85004 | -62.86891 | 4349 ft | 258 kts | 278° |
| 2026-05-08 22:34 | 17.85212 | -62.88710 | 4185 ft | 244 kts | 278° |
| 2026-05-08 22:34 | 17.85429 | -62.90425 | 4106 ft | 229 kts | 280° |
| 2026-05-08 22:34 | 17.85673 | -62.92027 | 4072 ft | 217 kts | 281° |
| 2026-05-08 22:35 | 17.85923 | -62.93550 | 4050 ft | 206 kts | 282° |
| 2026-05-08 22:35 | 17.86160 | -62.94999 | 4040 ft | 197 kts | 282° |
| 2026-05-08 22:35 | 17.86394 | -62.96408 | 3949 ft | 195 kts | 282° |
| 2026-05-08 22:35 | 17.86622 | -62.97822 | 3891 ft | 205 kts | 281° |
| 2026-05-08 22:36 | 17.86865 | -62.99329 | 3800 ft | 213 kts | 281° |
| 2026-05-08 22:36 | 17.87119 | -63.00885 | 3700 ft | 220 kts | 281° |
| 2026-05-08 22:36 | 17.87380 | -63.02494 | 3602 ft | 227 kts | 281° |
| 2026-05-08 22:36 | 17.87646 | -63.04144 | 3507 ft | 231 kts | 281° |
| 2026-05-08 22:37 | 17.87912 | -63.05816 | 3404 ft | 233 kts | 281° |
| 2026-05-08 22:37 | 17.88189 | -63.07508 | 3304 ft | 236 kts | 281° |
| 2026-05-08 22:37 | 17.88465 | -63.09213 | 3201 ft | 238 kts | 281° |
| 2026-05-08 22:37 | 17.88738 | -63.10925 | 3115 ft | 238 kts | 281° |
| 2026-05-08 22:38 | 17.89017 | -63.12633 | 3069 ft | 237 kts | 281° |
| 2026-05-08 22:38 | 17.89289 | -63.14331 | 3053 ft | 235 kts | 281° |
| 2026-05-08 22:38 | 17.89559 | -63.16018 | 3044 ft | 233 kts | 281° |
| 2026-05-08 22:38 | 17.89828 | -63.17684 | 3037 ft | 231 kts | 281° |
| 2026-05-08 22:39 | 17.90092 | -63.19339 | 3036 ft | 229 kts | 281° |
| 2026-05-08 22:39 | 17.90269 | -63.20427 | 3034 ft | 229 kts | 281° |
| 2026-05-08 22:39 | 17.90536 | -63.22075 | 3034 ft | 229 kts | 281° |
| 2026-05-08 22:39 | 17.90798 | -63.23719 | 3033 ft | 228 kts | 281° |
| 2026-05-08 22:40 | 17.91061 | -63.25356 | 3033 ft | 226 kts | 282° |
| 2026-05-08 22:40 | 17.91676 | -63.26811 | 3031 ft | 217 kts | 316° |
| 2026-05-08 22:40 | 17.92898 | -63.27690 | 3034 ft | 212 kts | 336° |
| 2026-05-08 22:40 | 17.94252 | -63.28280 | 3035 ft | 210 kts | 346° |
| 2026-05-08 22:41 | 17.96131 | -63.28748 | 3037 ft | 209 kts | 354° |
| 2026-05-08 22:41 | 17.97104 | -63.28900 | 3037 ft | 209 kts | 355° |
| 2026-05-08 22:41 | 17.98551 | -63.29099 | 3037 ft | 210 kts | 356° |
| 2026-05-08 22:41 | 17.99951 | -63.28938 | 2917 ft | 205 kts | 29° |
| 2026-05-08 22:42 | 18.00949 | -63.27884 | 2747 ft | 208 kts | 58° |
| 2026-05-08 22:42 | 18.01610 | -63.26524 | 2593 ft | 210 kts | 68° |
| 2026-05-08 22:42 | 18.02064 | -63.25063 | 2449 ft | 211 kts | 75° |
| 2026-05-08 22:42 | 18.02357 | -63.23554 | 2298 ft | 210 kts | 80° |
| 2026-05-08 22:43 | 18.02554 | -63.22052 | 2159 ft | 206 kts | 82° |
| 2026-05-08 22:43 | 18.02726 | -63.20571 | 2016 ft | 204 kts | 82° |
| 2026-05-08 22:43 | 18.02903 | -63.19116 | 1814 ft | 197 kts | 82° |
| 2026-05-08 22:43 | 18.03072 | -63.17797 | 1530 ft | 176 kts | 81° |
| 2026-05-08 22:44 | 18.03245 | -63.16567 | 1184 ft | 164 kts | 78° |
| 2026-05-08 22:44 | 18.03436 | -63.15460 | 999 ft | 146 kts | 80° |
| 2026-05-08 22:44 | 18.03582 | -63.14434 | 669 ft | 134 kts | 79° |
| 2026-05-08 22:44 | 18.03709 | -63.13539 | 385 ft | 116 kts | 79° |
| 2026-05-08 22:45 | 18.03825 | -63.12737 | 200 ft | 109 kts | 79° |
| 2026-05-08 22:45 | 18.03940 | -63.11965 | 50 ft | 104 kts | 80° |
| 2026-05-08 22:45 | 18.04036 | -63.11299 | 17 ft | 81 kts | 82° |
| 2026-05-08 22:45 | 18.04083 | -63.10959 | 18 ft | 19 kts | 83° |
| 2026-05-08 22:46 | 18.04091 | -63.10887 | 17 ft | 5 kts | 35° |
| 2026-05-08 22:46 | 18.04103 | -63.10895 | 17 ft | 2 kts | 274° |
| 2026-05-08 22:46 | 18.04091 | -63.10961 | 18 ft | 14 kts | 276° |
| 2026-05-08 22:46 | 18.04151 | -63.10998 | 19 ft | 11 kts | 348° |
| 2026-05-08 22:47 | 18.04165 | -63.11056 | 18 ft | 10 kts | 262° |
| 2026-05-08 22:47 | 18.04154 | -63.11141 | 19 ft | 13 kts | 262° |
| 2026-05-08 22:47 | 18.04142 | -63.11228 | 18 ft | 9 kts | 261° |
| 2026-05-08 22:47 | 18.04136 | -63.11287 | 17 ft | 7 kts | 285° |
| 2026-05-08 22:48 | 18.04176 | -63.11301 | 17 ft | 7 kts | 352° |
| 2026-05-08 22:48 | 18.04226 | -63.11313 | 17 ft | 9 kts | 332° |
| 2026-05-08 22:48 | 18.04229 | -63.11374 | 17 ft | 8 kts | 210° |
| 2026-05-08 22:48 | 18.04182 | -63.11369 | 17 ft | 6 kts | 171° |
| 2026-05-08 22:49 | 18.04154 | -63.11364 | 17 ft | 0 kts | 170° |